Estación Meteorológica Peña el Pijo (Robertgarden) [ 02/03/23 03:57:38 CET ]

Fecha Hora Presion(HPa) Temp (°C) Humedad % Rocio (°C) Viento ( m/s) Direccion Lluvia 1Hora(mm) Lluvia 24H(mm) LLuvia Total(mm)
2012-May-25 01:01:13 1012.500 11.2 57 2.9         159.54
2012-May-25 02:01:14 1012.000 10.5 60 3.0         159.54
2012-May-25 03:04:42 1011.400 9.9 61 2.7         159.54
2012-May-25 04:01:22 1011.000 9.1 63 2.4         159.54
2012-May-25 05:01:21 1010.900 8.6 66 2.6         159.54
2012-May-25 06:01:18 1010.400 7.9 68 2.4         159.54
2012-May-25 07:01:14 1010.400 7.3 71 2.4         159.54
2012-May-25 08:01:20 1010.300 10.8 70 5.6         159.54
2012-May-25 09:01:14 1010.400 18.4 51 8.1         159.54
2012-May-25 10:01:17 1010.100 24.6 36 8.5         159.54
2012-May-25 11:01:14 1010.000 28.3 25 6.2         159.54
2012-May-25 12:01:12 1009.600 29.8 22 5.6         159.54
2012-May-25 13:01:14 1009.200 31.4 21 6.4         159.54
2012-May-25 14:01:11 1008.900 30.4 21 5.5         159.54
2012-May-25 15:01:16 1008.600 28.1 24 5.4         159.54
2012-May-25 16:01:14 1008.400 27.9 27 7.0 0.9 NNE     159.54
2012-May-25 17:01:16 1007.900 29.9 25 7.5         159.54
2012-May-25 18:01:17 1007.700 28.7 25 6.5 3.5 E     159.54
2012-May-25 19:01:13 1007.800 25.8 28 5.8 0.6 NE     159.54
2012-May-25 20:01:14 1008.200 24.3 32 6.5         159.54
2012-May-25 21:01:13 1009.000 23.4 30 4.9 0.5 ENE     159.54
2012-May-25 22:01:14 1009.600 19.9 36 4.3         159.54
2012-May-25 23:01:16 1010.100 15.6 47 4.3         159.54

Temperatura Máxima:31°    Temperatura Mínima:
Presión Máxima:1012.500 Hpa    Presión Mínima:1007.700 Hpa


Volver